createdAt,value
2017-09-04T00:01:47.402Z,12.80
2017-09-04T00:04:15.679Z,12.80
2017-09-04T00:06:43.927Z,12.80
2017-09-04T00:09:12.162Z,12.80
2017-09-04T00:11:40.430Z,12.80
2017-09-04T00:14:08.675Z,12.70
2017-09-04T00:16:36.914Z,12.70
2017-09-04T00:19:05.527Z,12.80
2017-09-04T00:21:33.765Z,12.80
2017-09-04T00:24:02.002Z,12.80
2017-09-04T00:26:30.273Z,12.70
2017-09-04T00:28:58.653Z,12.60
2017-09-04T00:31:26.898Z,12.50
2017-09-04T00:33:55.157Z,12.40
2017-09-04T00:36:23.403Z,12.40
2017-09-04T00:38:51.646Z,12.30
2017-09-04T00:41:20.378Z,12.40
2017-09-04T00:43:48.618Z,12.40
2017-09-04T00:46:17.054Z,12.30
2017-09-04T00:48:45.742Z,12.30
2017-09-04T00:51:13.994Z,12.30
2017-09-04T00:53:42.238Z,12.20
2017-09-04T00:56:10.507Z,12.10
2017-09-04T00:58:38.747Z,12.00
2017-09-04T01:01:06.990Z,11.90
2017-09-04T01:03:35.413Z,11.90
2017-09-04T01:06:03.654Z,11.90
2017-09-04T01:08:31.902Z,11.90
2017-09-04T01:11:00.169Z,11.90
2017-09-04T01:13:28.550Z,12.00
2017-09-04T01:15:56.791Z,11.90
2017-09-04T01:18:25.062Z,12.00
2017-09-04T01:20:53.305Z,12.10
2017-09-04T01:23:21.754Z,12.10
2017-09-04T01:25:50.326Z,12.00
2017-09-04T01:28:18.568Z,11.90
2017-09-04T01:30:46.806Z,11.90
2017-09-04T01:33:15.561Z,11.80
2017-09-04T01:35:43.798Z,11.80
2017-09-04T01:38:12.039Z,11.80
2017-09-04T01:40:40.300Z,11.80
2017-09-04T01:43:08.534Z,11.80
2017-09-04T01:45:36.870Z,11.70
2017-09-04T01:48:05.194Z,11.70
2017-09-04T01:50:33.962Z,11.60
2017-09-04T01:53:02.199Z,11.50
2017-09-04T01:55:30.472Z,11.50
2017-09-04T01:57:58.722Z,11.60
2017-09-04T02:00:26.970Z,11.60
2017-09-04T02:02:55.241Z,11.60
2017-09-04T02:05:23.490Z,11.60
2017-09-04T02:07:51.746Z,11.50
2017-09-04T02:10:20.421Z,11.50
2017-09-04T02:12:48.733Z,11.30
2017-09-04T02:15:16.978Z,11.30
2017-09-04T02:17:45.250Z,11.20
2017-09-04T02:20:13.494Z,11.30
2017-09-04T02:22:42.555Z,11.40
2017-09-04T02:25:10.829Z,11.40
2017-09-04T02:27:39.070Z,11.60
2017-09-04T02:30:07.322Z,11.70
2017-09-04T02:32:36.414Z,11.70
2017-09-04T02:35:04.662Z,11.70
2017-09-04T02:37:32.901Z,11.70
2017-09-04T02:40:01.174Z,11.60
2017-09-04T02:42:29.426Z,11.60
2017-09-04T02:44:57.683Z,11.50
2017-09-04T02:47:26.723Z,11.60
2017-09-04T02:49:54.971Z,11.60
2017-09-04T02:52:23.438Z,11.60
2017-09-04T02:54:52.613Z,11.80
2017-09-04T02:57:20.854Z,11.70
2017-09-04T02:59:49.110Z,11.80
2017-09-04T03:02:17.386Z,11.80
2017-09-04T03:04:45.634Z,11.70
2017-09-04T03:07:13.996Z,11.70
2017-09-04T03:09:42.273Z,11.70
2017-09-04T03:12:10.520Z,11.80
2017-09-04T03:14:38.814Z,11.80
2017-09-04T03:17:07.151Z,11.90
2017-09-04T03:19:35.402Z,12.00
2017-09-04T03:22:04.423Z,11.90
2017-09-04T03:24:32.698Z,11.80
2017-09-04T03:27:00.954Z,11.70
2017-09-04T03:29:29.969Z,11.70
2017-09-04T03:31:58.246Z,11.70
2017-09-04T03:34:26.498Z,11.80
2017-09-04T03:36:55.510Z,11.80
2017-09-04T03:39:23.922Z,11.80
2017-09-04T03:41:52.174Z,11.80
2017-09-04T03:44:20.594Z,11.80
2017-09-04T03:46:48.863Z,11.80
2017-09-04T03:49:17.114Z,11.80
2017-09-04T03:51:45.367Z,11.80
2017-09-04T03:54:14.788Z,11.80
2017-09-04T03:56:43.128Z,11.70
2017-09-04T03:59:11.366Z,11.70
2017-09-04T04:01:39.726Z,11.70
2017-09-04T04:04:07.973Z,11.70
2017-09-04T04:06:36.989Z,11.70
2017-09-04T04:09:05.344Z,11.70
2017-09-04T04:11:34.359Z,11.60
2017-09-04T04:14:02.609Z,11.60
2017-09-04T04:16:30.954Z,11.70
2017-09-04T04:18:59.190Z,11.70
2017-09-04T04:21:27.442Z,11.70
2017-09-04T04:23:56.279Z,11.70
2017-09-04T04:26:24.530Z,11.70
2017-09-04T04:28:52.961Z,11.70
2017-09-04T04:31:21.233Z,11.70
2017-09-04T04:33:49.482Z,11.70
2017-09-04T04:36:17.730Z,11.70
2017-09-04T04:38:46.022Z,11.70
2017-09-04T04:41:14.258Z,11.60
2017-09-04T04:43:42.509Z,11.60
2017-09-04T04:46:10.846Z,11.60
2017-09-04T04:48:39.103Z,11.60
2017-09-04T04:51:07.352Z,11.60
2017-09-04T04:53:35.626Z,11.60
2017-09-04T04:56:04.066Z,11.60
2017-09-04T04:58:32.318Z,11.60
2017-09-04T05:01:00.586Z,11.70
2017-09-04T05:03:28.846Z,11.70
2017-09-04T05:05:57.090Z,11.70
2017-09-04T05:08:25.571Z,11.70
2017-09-04T05:10:53.825Z,11.70
2017-09-04T05:13:22.079Z,11.70
2017-09-04T05:15:51.128Z,11.70
2017-09-04T05:18:19.427Z,11.80
2017-09-04T05:20:48.428Z,11.80
2017-09-04T05:23:16.698Z,11.80
2017-09-04T05:25:44.942Z,11.80
2017-09-04T05:28:13.194Z,11.90
2017-09-04T05:30:41.686Z,11.90
2017-09-04T05:33:09.940Z,12.00
2017-09-04T05:35:38.195Z,12.00
2017-09-04T05:38:06.472Z,12.00
2017-09-04T05:40:34.724Z,12.00
2017-09-04T05:43:02.969Z,11.90
2017-09-04T05:45:31.242Z,11.90
2017-09-04T05:47:59.490Z,11.90
2017-09-04T05:50:28.506Z,12.00
2017-09-04T05:52:56.870Z,12.00
2017-09-04T05:55:25.127Z,12.00
2017-09-04T05:57:53.474Z,12.00
2017-09-04T06:00:21.749Z,12.10
2017-09-04T06:02:50.135Z,12.10
2017-09-04T06:05:18.390Z,12.10
2017-09-04T06:07:46.682Z,12.10
2017-09-04T06:10:14.931Z,12.10
2017-09-04T06:12:43.178Z,12.10
2017-09-04T06:15:12.538Z,12.20
2017-09-04T06:17:40.774Z,12.10
2017-09-04T06:20:09.026Z,12.30
2017-09-04T06:22:37.302Z,12.40
2017-09-04T06:25:05.562Z,12.40
2017-09-04T06:27:33.820Z,12.40
2017-09-04T06:30:02.091Z,12.40
2017-09-04T06:32:30.338Z,12.40
2017-09-04T06:34:58.590Z,12.50
2017-09-04T06:37:27.858Z,12.50
2017-09-04T06:39:56.111Z,12.50
2017-09-04T06:42:24.371Z,12.60
2017-09-04T06:44:52.650Z,12.60
2017-09-04T06:47:20.902Z,12.70
2017-09-04T06:49:49.146Z,12.80
2017-09-04T06:52:17.442Z,12.80
2017-09-04T06:54:45.705Z,12.90
2017-09-04T06:57:14.061Z,12.90
2017-09-04T06:59:43.410Z,13.00
2017-09-04T07:02:11.662Z,13.10
2017-09-04T07:04:39.914Z,13.10
2017-09-04T07:07:08.191Z,13.10
2017-09-04T07:09:36.439Z,13.20
2017-09-04T07:12:04.690Z,13.30
2017-09-04T07:14:33.725Z,13.50
2017-09-04T07:17:01.970Z,13.50
2017-09-04T07:19:32.038Z,13.70
2017-09-04T07:22:00.374Z,13.70
2017-09-04T07:24:28.622Z,13.80
2017-09-04T07:26:56.878Z,13.90
2017-09-04T07:29:25.167Z,13.90
2017-09-04T07:31:53.399Z,13.80
2017-09-04T07:34:21.653Z,13.80
2017-09-04T07:36:50.112Z,13.60
2017-09-04T07:39:19.126Z,13.60
2017-09-04T07:41:47.381Z,13.50
2017-09-04T07:44:15.964Z,13.60
2017-09-04T07:46:44.217Z,13.60
2017-09-04T07:49:12.471Z,13.50
2017-09-04T07:51:40.743Z,13.60
2017-09-04T07:54:08.990Z,13.60
2017-09-04T07:56:37.250Z,13.70
2017-09-04T07:59:05.525Z,13.70
2017-09-04T08:01:34.199Z,13.80
2017-09-04T08:04:02.448Z,13.90
2017-09-04T08:06:30.768Z,13.90
2017-09-04T08:08:59.018Z,13.90
2017-09-04T08:11:27.390Z,14.00
2017-09-04T08:13:55.666Z,14.10
2017-09-04T08:16:23.918Z,14.10
2017-09-04T08:18:52.170Z,14.20
2017-09-04T08:21:20.455Z,14.20
2017-09-04T08:23:48.709Z,14.30
2017-09-04T08:26:16.963Z,14.40
2017-09-04T08:28:45.317Z,14.60
2017-09-04T08:31:13.570Z,14.60
2017-09-04T08:33:41.822Z,14.70
2017-09-04T08:36:10.096Z,14.80
2017-09-04T08:38:38.346Z,14.90
2017-09-04T08:41:06.713Z,14.90
2017-09-04T08:43:34.989Z,14.90
2017-09-04T08:46:03.256Z,15.00
2017-09-04T08:48:31.494Z,15.10
2017-09-04T08:51:00.302Z,15.10
2017-09-04T08:53:28.558Z,15.20
2017-09-04T08:55:56.801Z,15.30
2017-09-04T08:58:25.082Z,15.30
2017-09-04T09:00:53.337Z,15.40
2017-09-04T09:03:21.773Z,15.50
2017-09-04T09:05:50.050Z,15.70
2017-09-04T09:08:18.306Z,15.70
2017-09-04T09:10:46.550Z,15.70
2017-09-04T09:13:15.102Z,15.80
2017-09-04T09:15:43.358Z,15.80
2017-09-04T09:18:12.402Z,15.90
2017-09-04T09:20:40.681Z,15.90
2017-09-04T09:23:08.930Z,16.00
2017-09-04T09:25:37.182Z,16.10
2017-09-04T09:28:05.458Z,16.20
2017-09-04T09:30:33.705Z,16.20
2017-09-04T09:33:02.726Z,16.30
2017-09-04T09:35:31.270Z,16.20
2017-09-04T09:37:59.523Z,16.30
2017-09-04T09:40:27.766Z,16.40
2017-09-04T09:42:56.034Z,16.50
2017-09-04T09:45:24.281Z,16.50
2017-09-04T09:47:52.529Z,16.60
2017-09-04T09:50:20.816Z,16.70
2017-09-04T09:52:49.085Z,16.70
2017-09-04T09:55:17.334Z,16.80
2017-09-04T09:57:45.942Z,16.90
2017-09-04T10:00:14.171Z,16.90
2017-09-04T10:02:42.410Z,17.00
2017-09-04T10:05:10.775Z,17.10
2017-09-04T10:07:39.018Z,17.20
2017-09-04T10:10:07.270Z,17.30
2017-09-04T10:12:35.542Z,17.50
2017-09-04T10:15:03.812Z,17.50
2017-09-04T10:17:32.049Z,17.70
2017-09-04T10:20:00.730Z,17.80
2017-09-04T10:22:28.976Z,17.80
2017-09-04T10:24:57.222Z,18.00
2017-09-04T10:27:25.502Z,18.10
2017-09-04T10:29:53.745Z,18.30
2017-09-04T10:32:21.983Z,18.60
2017-09-04T10:34:50.246Z,19.20
2017-09-04T10:37:18.533Z,20.40
2017-09-04T10:39:46.786Z,21.80
2017-09-04T10:42:15.193Z,23.10
2017-09-04T10:44:43.430Z,24.30
2017-09-04T10:47:12.014Z,24.90
2017-09-04T10:49:40.275Z,25.20
2017-09-04T10:52:08.522Z,25.50
2017-09-04T10:54:36.782Z,25.70
2017-09-04T10:57:09.123Z,25.80
2017-09-04T10:59:37.366Z,26.50
2017-09-04T11:02:05.609Z,27.00
2017-09-04T11:04:34.024Z,27.30
2017-09-04T11:07:02.914Z,28.00
2017-09-04T11:09:31.154Z,28.60
2017-09-04T11:11:59.451Z,28.90
2017-09-04T11:14:27.690Z,29.50
2017-09-04T11:16:56.702Z,30.30
2017-09-04T11:19:24.967Z,30.30
2017-09-04T11:21:53.202Z,30.90
2017-09-04T11:24:21.451Z,31.30
2017-09-04T11:26:50.030Z,31.50
2017-09-04T16:27:56.509Z,31.20
2017-09-04T16:30:45.433Z,31.20
2017-09-04T16:33:14.179Z,30.90
2017-09-04T16:35:44.410Z,30.30
2017-09-04T16:38:33.547Z,29.90
2017-09-04T16:41:12.490Z,29.90
2017-09-04T16:44:02.035Z,30.00
2017-09-04T16:46:46.054Z,30.10
2017-09-04T16:49:31.127Z,30.10
2017-09-04T16:52:09.286Z,29.60
2017-09-04T16:54:39.442Z,28.90
2017-09-04T16:57:10.606Z,28.20
2017-09-04T16:59:38.859Z,27.90
2017-09-04T17:02:07.953Z,27.90
2017-09-04T17:04:36.210Z,27.90
2017-09-04T17:07:04.459Z,27.70
2017-09-04T17:09:36.571Z,27.20
2017-09-04T17:12:06.470Z,26.80
2017-09-04T17:14:34.995Z,26.40
2017-09-04T17:17:19.342Z,26.10
2017-09-04T17:19:51.107Z,25.80
2017-09-04T17:22:20.308Z,25.50
2017-09-04T17:24:52.475Z,25.30
2017-09-04T17:27:21.283Z,25.20
2017-09-04T17:29:49.754Z,25.00
2017-09-04T17:32:18.071Z,24.90
2017-09-04T17:34:46.320Z,24.70
2017-09-04T17:37:14.679Z,24.60
2017-09-04T17:39:42.918Z,24.50
2017-09-04T17:42:11.247Z,24.30
2017-09-04T17:44:40.354Z,24.10
2017-09-04T17:47:08.611Z,24.00
2017-09-04T17:49:36.874Z,23.90
2017-09-04T17:52:05.129Z,23.80
2017-09-04T17:54:33.385Z,23.70
2017-09-04T17:57:01.622Z,23.50
2017-09-04T17:59:30.315Z,23.40
2017-09-04T18:01:58.627Z,23.20
2017-09-04T18:04:26.866Z,23.10
2017-09-04T18:06:55.141Z,23.00
2017-09-04T18:09:23.375Z,22.80
2017-09-04T18:11:51.622Z,22.70
2017-09-04T18:14:19.893Z,22.60
2017-09-04T18:16:48.139Z,22.60
2017-09-04T18:19:17.358Z,22.50
2017-09-04T18:21:45.965Z,22.40
2017-09-04T18:24:14.837Z,22.30
2017-09-04T18:26:43.083Z,22.20
2017-09-04T18:29:11.349Z,22.10
2017-09-04T18:31:39.864Z,22.00
2017-09-04T18:34:08.109Z,21.90
2017-09-04T18:36:36.382Z,21.80
2017-09-04T18:39:04.631Z,21.70
2017-09-04T18:41:33.136Z,21.50
2017-09-04T18:44:01.716Z,21.40
2017-09-04T18:46:30.776Z,21.20
2017-09-04T18:48:59.064Z,21.20
2017-09-04T18:51:27.437Z,21.20
2017-09-04T18:53:55.797Z,21.10
2017-09-04T18:56:24.182Z,21.00
2017-09-04T18:58:52.458Z,20.90
2017-09-04T19:01:22.782Z,20.80
2017-09-04T19:03:51.172Z,20.80
2017-09-04T19:06:19.922Z,20.80
2017-09-04T19:08:48.220Z,20.80
2017-09-04T19:11:16.602Z,20.80
2017-09-04T19:13:45.014Z,20.80
2017-09-04T19:16:14.942Z,20.50
2017-09-04T19:18:43.184Z,20.50
2017-09-04T19:21:11.706Z,20.40
2017-09-04T19:23:39.946Z,20.30
2017-09-04T19:26:08.422Z,20.10
2017-09-04T19:28:37.299Z,20.00
2017-09-04T19:31:05.538Z,19.90
2017-09-04T19:33:34.205Z,19.90
2017-09-04T19:36:02.574Z,20.10
2017-09-04T19:38:30.924Z,20.00
2017-09-04T19:41:01.147Z,20.00
2017-09-04T19:43:31.875Z,20.10
2017-09-04T19:46:00.190Z,20.20
2017-09-04T19:48:28.431Z,20.30
2017-09-04T19:50:56.770Z,20.30
2017-09-04T19:53:25.022Z,20.20
2017-09-04T19:55:54.199Z,20.00
2017-09-04T19:58:22.613Z,20.00
2017-09-04T20:00:50.943Z,19.90
2017-09-04T20:03:19.354Z,19.80
2017-09-04T20:05:47.643Z,19.70
2017-09-04T20:08:16.086Z,19.50
2017-09-04T20:10:44.330Z,19.40
2017-09-04T20:13:12.693Z,19.40
2017-09-04T20:15:40.927Z,19.30
2017-09-04T20:18:09.162Z,19.30
2017-09-04T20:20:37.746Z,19.30
2017-09-04T20:23:06.981Z,19.20
2017-09-04T20:25:35.358Z,19.10
2017-09-04T20:28:03.622Z,19.00
2017-09-04T20:30:31.865Z,18.90
2017-09-04T20:33:00.115Z,18.80
2017-09-04T20:35:28.961Z,18.70
2017-09-04T20:37:57.212Z,18.70
2017-09-04T20:40:25.454Z,18.60
2017-09-04T20:42:53.729Z,18.50
2017-09-04T20:45:21.986Z,18.50
2017-09-04T20:47:50.238Z,18.50
2017-09-04T20:50:18.506Z,18.50
2017-09-04T20:52:46.741Z,18.50
2017-09-04T20:55:14.991Z,18.40
2017-09-04T20:57:43.652Z,18.40
2017-09-04T21:00:11.894Z,18.30
2017-09-04T21:02:40.142Z,18.20
2017-09-04T21:05:09.174Z,18.20
2017-09-04T21:07:37.426Z,18.10
2017-09-04T21:10:05.666Z,18.10
2017-09-04T21:12:33.942Z,18.00
2017-09-04T21:15:02.223Z,17.90
2017-09-04T21:17:30.524Z,17.90
2017-09-04T21:19:59.015Z,17.90
2017-09-04T21:22:27.254Z,17.80
2017-09-04T21:24:55.490Z,17.80
2017-09-04T21:27:23.750Z,17.70
2017-09-04T21:29:51.997Z,17.70
2017-09-04T21:32:20.234Z,17.60
2017-09-04T21:34:48.762Z,17.50
2017-09-04T21:37:17.453Z,17.50
2017-09-04T21:39:45.690Z,17.40
2017-09-04T21:42:14.006Z,17.40
2017-09-04T21:44:43.015Z,17.30
2017-09-04T21:47:11.259Z,17.30
2017-09-04T21:49:39.534Z,17.30
2017-09-04T21:52:07.769Z,17.20
2017-09-04T21:54:36.010Z,17.20
2017-09-04T21:57:04.282Z,17.10
2017-09-04T21:59:32.522Z,17.10
2017-09-04T22:02:00.762Z,17.10
2017-09-04T22:04:29.854Z,17.10
2017-09-04T22:06:58.094Z,17.00
2017-09-04T22:09:26.337Z,17.00
2017-09-04T22:11:54.998Z,17.00
2017-09-04T22:14:23.238Z,16.90
2017-09-04T22:16:51.481Z,16.90
2017-09-04T22:19:19.747Z,16.80
2017-09-04T22:21:47.990Z,16.80
2017-09-04T22:24:16.234Z,16.80
2017-09-04T22:26:44.826Z,16.70
2017-09-04T22:29:13.070Z,16.70
2017-09-04T22:31:41.310Z,16.70
2017-09-04T22:34:09.573Z,16.70
2017-09-04T22:36:38.581Z,16.70
2017-09-04T22:39:07.166Z,16.70
2017-09-04T22:41:35.434Z,16.70
2017-09-04T22:44:03.679Z,16.70
2017-09-04T22:46:31.921Z,16.70
2017-09-04T22:49:00.801Z,16.70
2017-09-04T22:51:29.041Z,16.70
2017-09-04T22:53:57.282Z,16.60
2017-09-04T22:56:25.544Z,16.50
2017-09-04T22:58:54.578Z,16.50
2017-09-04T23:01:22.823Z,16.40
2017-09-04T23:03:51.083Z,16.40
2017-09-04T23:06:19.318Z,16.30
2017-09-04T23:08:47.571Z,16.20
2017-09-04T23:11:16.013Z,16.20
2017-09-04T23:13:44.251Z,16.20
2017-09-04T23:16:14.428Z,16.10
2017-09-04T23:18:42.690Z,16.00
2017-09-04T23:21:10.934Z,16.00
2017-09-04T23:23:39.178Z,16.00
2017-09-04T23:26:07.718Z,15.90
2017-09-04T23:28:35.954Z,15.90
2017-09-04T23:31:04.198Z,15.90
2017-09-04T23:33:32.510Z,15.80
2017-09-04T23:36:00.854Z,15.80
2017-09-04T23:38:29.103Z,15.80
2017-09-04T23:40:57.665Z,15.70
2017-09-04T23:43:25.914Z,15.70
2017-09-04T23:45:54.918Z,15.70
2017-09-04T23:48:23.209Z,15.60
2017-09-04T23:50:51.458Z,15.60
2017-09-04T23:53:20.466Z,15.50
2017-09-04T23:55:49.622Z,15.50
2017-09-04T23:58:17.866Z,15.50
